Time;durP1;ratioP1;P1;durP2;ratioP2;P2;SDS_P1;SDS_P2;PMS_P1;PMS_P2;Temp;Humidity;BMP_temperature;BMP_pressure;BME280_temperature;BME280_humidity;BME280_pressure;Samples;Min_cycle;Max_cycle;Signal;HPM_P1;HPM_P2
2021/11/28 00:00:14;;;;;;;3.60;2.30;;;;;;;4.26;74.45;93590.72;4974306;28;20748;-84
2021/11/28 00:02:41;;;;;;;3.07;2.33;;;;;;;4.25;74.76;93583.25;4974089;28;20220;-84
2021/11/28 00:05:08;;;;;;;2.63;2.40;;;;;;;4.30;74.39;93578.38;4973701;28;20215;-83
2021/11/28 00:07:48;;;;;;;3.30;2.47;;;;;;;4.30;74.41;93576.63;4972677;28;20224;-83
2021/11/28 00:10:19;;;;;;;2.50;2.30;;;;;;;4.29;74.04;93581.91;4974982;28;20215;-85
2021/11/28 00:12:49;;;;;;;4.10;2.73;;;;;;;4.31;74.51;93588.38;4974067;28;20247;-84
2021/11/28 00:15:18;;;;;;;3.00;2.43;;;;;;;4.33;74.04;93572.91;4974508;28;20690;-84
2021/11/28 00:17:45;;;;;;;3.80;2.80;;;;;;;4.38;74.37;93565.50;4974309;28;20204;-83
2021/11/28 00:20:17;;;;;;;4.87;2.73;;;;;;;4.39;73.75;93565.31;4975273;28;20208;-83
2021/11/28 00:22:45;;;;;;;3.37;2.50;;;;;;;4.42;73.95;93564.97;4974523;28;20278;-83
2021/11/28 00:25:14;;;;;;;2.63;2.43;;;;;;;4.38;73.16;93561.22;4974649;28;20208;-83
2021/11/28 00:27:42;;;;;;;4.60;2.70;;;;;;;4.39;73.38;93552.59;4973913;28;20211;-84
2021/11/28 00:30:16;;;;;;;2.70;2.50;;;;;;;4.38;73.27;93557.88;4974212;28;20200;-84
2021/11/28 00:32:42;;;;;;;2.90;2.60;;;;;;;4.39;73.63;93562.00;4973763;28;20236;-82
2021/11/28 00:35:09;;;;;;;9.73;7.00;;;;;;;4.43;73.17;93569.03;4973649;28;20228;-81
2021/11/28 00:37:36;;;;;;;9.60;6.97;;;;;;;4.45;73.32;93562.00;4974483;28;20247;-84
2021/11/28 00:40:03;;;;;;;3.83;3.40;;;;;;;4.49;73.08;93568.31;4974029;28;20561;-82
2021/11/28 00:42:30;;;;;;;5.23;3.07;;;;;;;4.51;72.78;93568.13;4954319;28;20229;-83
2021/11/28 00:44:57;;;;;;;3.17;2.87;;;;;;;4.52;72.67;93569.69;4956491;28;20263;-83
2021/11/28 00:47:25;;;;;;;3.00;2.70;;;;;;;4.54;72.91;93570.28;4976378;28;20671;-81
2021/11/28 00:50:03;;;;;;;4.27;2.63;;;;;;;4.53;73.00;93571.25;4977539;28;20226;-84
2021/11/28 00:52:30;;;;;;;3.07;2.77;;;;;;;4.54;73.30;93569.50;4977897;28;20259;-84
2021/11/28 00:54:56;;;;;;;3.73;2.77;;;;;;;4.53;73.57;93570.47;4977102;28;20203;-81
2021/11/28 00:57:23;;;;;;;3.10;2.80;;;;;;;4.55;72.93;93573.63;4978314;28;20262;-83
2021/11/28 00:59:50;;;;;;;3.90;3.07;;;;;;;4.51;73.27;93570.66;4977066;28;20204;-82
2021/11/28 01:02:17;;;;;;;3.27;2.83;;;;;;;4.53;73.54;93573.81;4977929;28;20223;-84
2021/11/28 01:04:45;;;;;;;3.50;3.07;;;;;;;4.54;73.56;93577.94;4977539;28;20204;-84
2021/11/28 01:07:12;;;;;;;4.03;3.43;;;;;;;4.54;73.49;93579.69;4977867;28;20236;-84
2021/11/28 01:09:39;;;;;;;3.70;2.70;;;;;;;4.57;73.36;93589.50;4977517;28;20200;-83
2021/11/28 01:12:08;;;;;;;3.30;3.00;;;;;;;4.57;73.67;93590.31;4978077;28;20224;-83
2021/11/28 01:14:35;;;;;;;3.47;2.90;;;;;;;4.59;73.66;93590.91;4976817;28;20216;-82
2021/11/28 01:17:01;;;;;;;4.07;2.97;;;;;;;4.59;73.33;93597.75;4977694;28;20677;-82
2021/11/28 01:19:28;;;;;;;4.43;2.50;;;;;;;4.51;73.23;93607.13;4977692;28;20227;-81
2021/11/28 01:21:58;;;;;;;3.37;2.37;;;;;;;4.47;73.22;93600.81;4977754;28;20220;-83
2021/11/28 01:24:25;;;;;;;2.90;2.37;;;;;;;4.36;74.05;93595.47;4977596;28;20219;-83
2021/11/28 01:26:52;;;;;;;4.17;2.00;;;;;;;4.23;75.09;93590.31;4977768;28;20216;-84
2021/11/28 01:29:19;;;;;;;1.80;1.70;;;;;;;4.21;74.90;93595.59;4977354;28;20226;-82
2021/11/28 01:31:46;;;;;;;1.90;1.80;;;;;;;4.22;75.22;93594.63;4976918;28;20223;-82
2021/11/28 01:34:12;;;;;;;3.33;2.10;;;;;;;4.17;75.59;93604.56;4977524;28;20231;-84
2021/11/28 01:36:39;;;;;;;2.13;1.83;;;;;;;3.96;76.31;93610.50;4977425;28;20200;-82
2021/11/28 01:39:09;;;;;;;2.50;1.80;;;;;;;3.84;77.67;93608.66;4977629;28;20247;-81
2021/11/28 01:41:37;;;;;;;2.13;1.87;;;;;;;3.69;78.24;93616.34;4976985;28;20282;-82
2021/11/28 01:44:04;;;;;;;2.10;1.90;;;;;;;3.68;78.94;93607.13;4976645;28;20258;-83
2021/11/28 01:46:31;;;;;;;2.37;1.73;;;;;;;3.66;79.66;93616.69;4976631;28;20623;-83
2021/11/28 01:48:58;;;;;;;1.70;1.60;;;;;;;3.56;80.56;93623.84;4977285;28;20207;-84
2021/11/28 01:51:25;;;;;;;2.43;1.87;;;;;;;3.60;81.05;93620.78;4976564;28;20200;-82
2021/11/28 01:53:54;;;;;;;2.70;1.67;;;;;;;3.55;81.46;93628.16;4977226;28;20789;-84
2021/11/28 01:56:23;;;;;;;1.97;1.77;;;;;;;3.48;81.93;93619.66;4975605;28;20701;-82
2021/11/28 01:58:50;;;;;;;2.10;1.90;;;;;;;3.46;82.21;93608.91;4976673;28;20607;-82
2021/11/28 02:01:19;;;;;;;1.50;1.40;;;;;;;3.45;82.41;93613.22;4976736;28;20212;-80
2021/11/28 02:03:47;;;;;;;2.10;1.60;;;;;;;3.43;82.62;93606.72;4976713;28;20212;-83
2021/11/28 02:06:16;;;;;;;1.67;1.57;;;;;;;3.43;83.12;93606.72;4976652;28;20292;-83
2021/11/28 02:08:43;;;;;;;1.97;1.77;;;;;;;3.47;82.40;93615.53;4976479;28;20730;-81
2021/11/28 02:11:10;;;;;;;2.80;1.90;;;;;;;3.54;82.47;93618.94;4975787;28;20204;-83
2021/11/28 02:13:38;;;;;;;1.90;1.40;;;;;;;3.62;81.96;93616.28;4975595;28;20232;-81
2021/11/28 02:16:05;;;;;;;2.07;1.50;;;;;;;3.60;81.70;93619.97;4975808;28;20359;-82
2021/11/28 02:18:31;;;;;;;3.37;1.67;;;;;;;3.66;81.37;93609.06;4956964;29;20232;-82
2021/11/28 02:21:02;;;;;;;1.80;1.60;;;;;;;3.72;81.00;93598.94;4956904;29;20208;-84
2021/11/28 02:23:28;;;;;;;1.50;1.40;;;;;;;3.68;80.55;93595.19;4975532;28;20251;-84
2021/11/28 02:25:58;;;;;;;2.10;1.47;;;;;;;3.69;80.30;93590.88;4975801;28;20211;-82
2021/11/28 02:28:25;;;;;;;2.17;1.70;;;;;;;3.77;80.37;93591.56;4976370;28;20211;-82
2021/11/28 02:30:51;;;;;;;2.10;1.63;;;;;;;3.80;80.03;93581.00;4976444;28;20201;-83
2021/11/28 02:33:18;;;;;;;2.07;1.60;;;;;;;3.74;80.44;93576.66;4976250;28;20235;-84
2021/11/28 02:35:44;;;;;;;1.73;1.57;;;;;;;3.72;80.12;93570.94;4975248;28;20207;-82
2021/11/28 02:38:14;;;;;;;2.00;1.80;;;;;;;3.73;80.25;93564.09;4975734;28;20204;-84
2021/11/28 02:40:42;;;;;;;2.00;1.80;;;;;;;3.71;80.54;93556.66;4975590;28;20208;-81
2021/11/28 02:43:09;;;;;;;2.80;1.70;;;;;;;3.75;80.73;93577.44;4975452;28;20591;-82
2021/11/28 02:45:37;;;;;;;2.70;1.77;;;;;;;3.76;80.76;93591.75;4975361;28;20203;-82
2021/11/28 02:48:07;;;;;;;2.40;1.70;;;;;;;3.67;81.37;93593.63;4975194;28;20200;-82
2021/11/28 02:50:34;;;;;;;1.90;1.50;;;;;;;3.62;81.55;93583.22;4975363;28;20199;-81
2021/11/28 02:53:04;;;;;;;1.70;1.60;;;;;;;3.58;81.80;93574.38;4975155;28;20619;-84
2021/11/28 02:55:37;;;;;;;2.00;1.83;;;;;;;3.62;82.01;93574.78;4975266;28;20204;-83
2021/11/28 02:58:05;;;;;;;2.00;1.80;;;;;;;3.65;81.93;93569.34;4975275;28;20204;-81
2021/11/28 03:00:35;;;;;;;2.10;1.73;;;;;;;3.63;81.54;93551.72;4975792;28;20207;-84
2021/11/28 03:03:01;;;;;;;2.50;2.13;;;;;;;3.69;81.28;93550.19;4975160;28;21002;-82
2021/11/28 03:05:28;;;;;;;3.20;1.97;;;;;;;3.69;81.51;93545.09;4974670;28;20267;-81
2021/11/28 03:07:54;;;;;;;1.70;1.60;;;;;;;3.73;81.04;93542.00;4974611;28;20228;-82
2021/11/28 03:10:37;;;;;;;2.27;2.00;;;;;;;3.78;80.71;93539.69;4975052;28;20208;-82
2021/11/28 03:13:07;;;;;;;2.63;1.90;;;;;;;3.77;80.44;93543.19;4974485;28;20227;-83
2021/11/28 03:15:34;;;;;;;2.20;1.90;;;;;;;3.75;80.23;93537.50;4970451;28;20195;-81
2021/11/28 03:18:02;;;;;;;1.97;1.67;;;;;;;3.81;80.23;93538.53;4968986;28;20197;-82
2021/11/28 03:20:30;;;;;;;2.00;1.80;;;;;;;3.79;80.08;93533.63;4975218;28;20207;-84
2021/11/28 03:22:57;;;;;;;2.63;2.03;;;;;;;3.85;80.19;93554.22;4975285;28;20319;-83
2021/11/28 03:25:25;;;;;;;2.50;2.10;;;;;;;3.86;79.88;93548.13;4974923;28;20255;-81
2021/11/28 03:27:52;;;;;;;2.30;2.03;;;;;;;3.85;79.95;93541.50;4974704;28;20200;-84
2021/11/28 03:30:23;;;;;;;2.10;1.90;;;;;;;3.85;79.97;93536.41;4974775;28;20204;-84
2021/11/28 03:32:50;;;;;;;3.20;1.93;;;;;;;3.86;79.94;93536.19;4974671;28;20216;-84
2021/11/28 03:35:17;;;;;;;2.00;1.90;;;;;;;3.88;80.01;93536.00;4974497;28;20224;-84
2021/11/28 03:37:44;;;;;;;2.10;1.90;;;;;;;3.90;79.67;93532.31;4975055;28;20251;-83
2021/11/28 03:40:12;;;;;;;1.90;1.80;;;;;;;3.82;79.73;93527.38;4974433;28;20668;-84
2021/11/28 03:42:39;;;;;;;1.73;1.63;;;;;;;3.77;80.42;93527.94;4974092;28;20234;-83
2021/11/28 03:45:11;;;;;;;2.20;2.00;;;;;;;3.80;80.03;93540.28;4973910;28;20660;-82
2021/11/28 03:47:38;;;;;;;2.20;2.00;;;;;;;3.85;79.83;93539.72;4974874;28;20184;-84
2021/11/28 03:50:05;;;;;;;1.80;1.70;;;;;;;3.92;79.86;93534.69;4974270;28;20228;-84
2021/11/28 03:52:32;;;;;;;1.67;1.57;;;;;;;3.95;79.56;93531.75;4974545;28;20224;-82
2021/11/28 03:54:58;;;;;;;2.10;1.87;;;;;;;4.00;79.48;93534.53;4973575;28;20220;-82
2021/11/28 03:57:25;;;;;;;2.03;1.83;;;;;;;3.99;78.94;93531.22;4974534;28;20563;-83
2021/11/28 03:59:52;;;;;;;2.50;2.00;;;;;;;3.96;79.63;93528.25;4973522;28;20204;-83
2021/11/28 04:02:20;;;;;;;2.90;1.83;;;;;;;3.98;79.26;93524.53;4973909;28;20874;-83
2021/11/28 04:04:46;;;;;;;2.40;1.80;;;;;;;4.02;79.54;93537.69;4973993;28;20247;-84
2021/11/28 04:07:13;;;;;;;1.87;1.63;;;;;;;4.03;79.61;93540.06;4973229;28;20228;-84
2021/11/28 04:09:40;;;;;;;3.50;1.80;;;;;;;4.02;79.48;93542.78;4974493;28;20694;-83
2021/11/28 04:12:08;;;;;;;3.00;2.00;;;;;;;4.02;79.51;93538.47;4974495;28;20254;-83
2021/11/28 04:14:34;;;;;;;2.37;1.70;;;;;;;3.98;78.89;93526.31;4961036;28;20225;-81
2021/11/28 04:17:01;;;;;;;2.87;1.53;;;;;;;4.00;79.16;93527.69;4974334;28;20204;-82
2021/11/28 04:19:28;;;;;;;3.13;2.00;;;;;;;3.99;78.88;93533.75;4973432;28;20211;-82
2021/11/28 04:21:55;;;;;;;3.07;1.53;;;;;;;3.95;79.11;93536.84;4972610;28;20227;-81
2021/11/28 04:24:21;;;;;;;1.50;1.40;;;;;;;3.98;78.90;93536.50;4973592;28;20200;-80
2021/11/28 04:26:48;;;;;;;1.63;1.53;;;;;;;3.97;78.50;93540.00;4973208;28;20204;-81
2021/11/28 04:29:17;;;;;;;1.70;1.60;;;;;;;3.96;78.65;93531.59;4973624;28;20207;-84
2021/11/28 04:31:45;;;;;;;1.90;1.53;;;;;;;3.97;78.45;93532.38;4974262;28;20231;-82
2021/11/28 04:34:11;;;;;;;2.67;1.70;;;;;;;3.96;78.87;93528.25;4973706;28;20220;-83
2021/11/28 04:36:39;;;;;;;2.23;1.53;;;;;;;3.94;78.80;93530.19;4973606;28;20578;-85
2021/11/28 04:39:05;;;;;;;2.67;1.77;;;;;;;3.91;78.86;93521.16;4973802;28;20203;-81
2021/11/28 04:41:32;;;;;;;2.07;1.80;;;;;;;3.84;79.04;93527.19;4973568;28;20656;-82
2021/11/28 04:43:59;;;;;;;2.20;1.67;;;;;;;3.84;79.25;93528.00;4974073;28;20912;-84
2021/11/28 04:46:25;;;;;;;2.00;1.80;;;;;;;3.81;79.08;93531.69;4973347;28;20686;-84
2021/11/28 04:48:51;;;;;;;1.80;1.70;;;;;;;3.85;78.90;93527.00;4974325;28;20212;-84
2021/11/28 04:51:18;;;;;;;1.87;1.77;;;;;;;3.75;79.27;93524.78;4972951;28;20704;-85
2021/11/28 04:53:45;;;;;;;2.43;1.93;;;;;;;3.79;78.94;93536.16;4974167;28;20228;-83
2021/11/28 04:56:12;;;;;;;1.90;1.80;;;;;;;3.81;78.76;93528.34;4973083;28;20251;-84
2021/11/28 04:58:38;;;;;;;1.87;1.73;;;;;;;3.82;78.98;93524.84;4973506;28;20204;-83
2021/11/28 05:01:05;;;;;;;1.60;1.50;;;;;;;3.79;78.74;93536.16;4973580;28;20679;-83
2021/11/28 05:03:31;;;;;;;1.73;1.63;;;;;;;3.84;78.88;93527.19;4974294;28;20224;-84
2021/11/28 05:05:58;;;;;;;2.20;1.97;;;;;;;3.88;78.28;93530.94;4972043;28;20208;-83
2021/11/28 05:08:24;;;;;;;1.70;1.60;;;;;;;3.89;78.42;93538.38;4973489;28;20205;-84
2021/11/28 05:10:52;;;;;;;2.63;1.60;;;;;;;3.86;78.06;93535.41;4973237;28;20247;-84
2021/11/28 05:13:18;;;;;;;2.77;1.80;;;;;;;3.77;77.77;93538.13;4974036;28;20225;-83
2021/11/28 05:15:45;;;;;;;1.77;1.67;;;;;;;3.82;77.76;93537.56;4973197;28;20598;-84
2021/11/28 05:18:11;;;;;;;1.60;1.50;;;;;;;3.74;77.56;93540.25;4973471;28;20208;-82
2021/11/28 05:20:37;;;;;;;2.03;1.93;;;;;;;3.71;77.49;93545.69;4972951;28;20196;-82
2021/11/28 05:23:04;;;;;;;1.87;1.77;;;;;;;3.75;77.64;93547.69;4973494;28;20740;-83
2021/11/28 05:25:30;;;;;;;4.57;1.90;;;;;;;3.72;77.14;93542.97;4972419;28;20251;-83
2021/11/28 05:27:58;;;;;;;1.70;1.60;;;;;;;3.68;77.38;93544.28;4972996;28;20216;-82
2021/11/28 05:30:24;;;;;;;1.70;1.60;;;;;;;3.77;77.21;93547.50;4973335;28;20204;-81
2021/11/28 05:32:51;;;;;;;3.17;1.63;;;;;;;3.84;76.87;93545.81;4975672;28;20287;-81
2021/11/28 05:35:17;;;;;;;1.90;1.80;;;;;;;3.72;76.55;93534.53;4976382;28;20255;-81
2021/11/28 05:37:45;;;;;;;2.00;1.80;;;;;;;3.76;76.91;93546.72;4976443;28;20633;-81
2021/11/28 05:40:13;;;;;;;2.53;2.00;;;;;;;3.70;76.96;93542.34;4976687;28;20231;-83
2021/11/28 05:42:44;;;;;;;1.87;1.67;;;;;;;3.73;76.97;93552.19;4975202;28;20282;-82
2021/11/28 05:45:12;;;;;;;3.17;1.80;;;;;;;3.66;76.74;93556.41;4976809;28;20211;-82
2021/11/28 05:47:38;;;;;;;2.20;2.00;;;;;;;3.65;77.05;93551.53;4976367;28;20201;-83
2021/11/28 05:50:06;;;;;;;2.03;1.87;;;;;;;3.65;76.68;93557.41;4976911;28;20208;-82
2021/11/28 05:52:32;;;;;;;1.70;1.60;;;;;;;3.62;77.18;93552.69;4975791;28;20789;-83
2021/11/28 05:54:59;;;;;;;1.90;1.80;;;;;;;3.64;76.76;93560.94;4976819;28;20232;-83
2021/11/28 05:57:25;;;;;;;2.70;1.97;;;;;;;3.58;77.00;93561.66;4976577;28;20224;-83
2021/11/28 05:59:52;;;;;;;3.17;2.07;;;;;;;3.60;77.10;93562.25;4977361;28;20208;-82
2021/11/28 06:02:19;;;;;;;2.40;1.80;;;;;;;3.66;76.90;93565.81;4976340;28;20216;-82
2021/11/28 06:04:46;;;;;;;2.47;1.90;;;;;;;3.65;77.13;93559.97;4975416;28;20196;-80
2021/11/28 06:07:12;;;;;;;2.53;1.93;;;;;;;3.70;77.12;93562.72;4976042;28;20244;-82
2021/11/28 06:09:39;;;;;;;1.70;1.60;;;;;;;3.67;77.14;93562.28;4976391;28;20204;-82
2021/11/28 06:12:06;;;;;;;1.90;1.67;;;;;;;3.68;77.71;93556.22;4976066;28;20244;-81
2021/11/28 06:14:33;;;;;;;2.00;1.80;;;;;;;3.71;77.56;93554.13;4977475;28;20228;-85
2021/11/28 06:17:00;;;;;;;2.33;2.03;;;;;;;3.72;77.81;93558.22;4977810;28;20266;-83
2021/11/28 06:19:28;;;;;;;2.20;2.00;;;;;;;3.73;78.41;93557.25;4976995;28;20692;-83
2021/11/28 06:21:55;;;;;;;2.80;1.90;;;;;;;3.76;78.06;93563.75;4976967;28;20255;-84
2021/11/28 06:24:21;;;;;;;2.30;2.10;;;;;;;3.82;78.04;93570.66;4976843;28;20203;-84
2021/11/28 06:26:48;;;;;;;1.73;1.63;;;;;;;3.81;78.52;93569.88;4977170;28;20219;-82
2021/11/28 06:29:14;;;;;;;2.30;1.80;;;;;;;3.80;78.61;93572.59;4976714;28;20409;-84
2021/11/28 06:31:41;;;;;;;2.80;1.80;;;;;;;3.87;78.42;93558.13;4977008;28;20223;-83
2021/11/28 06:34:08;;;;;;;2.80;1.80;;;;;;;3.88;78.71;93566.56;4976614;28;20207;-85
2021/11/28 06:36:36;;;;;;;1.90;1.70;;;;;;;3.93;78.55;93567.59;4976944;28;20224;-82
2021/11/28 06:39:02;;;;;;;3.33;2.13;;;;;;;3.97;78.66;93568.78;4976373;28;20205;-82
2021/11/28 06:41:29;;;;;;;3.13;2.00;;;;;;;3.98;79.19;93572.91;4975691;28;20215;-84
2021/11/28 06:43:57;;;;;;;3.27;1.90;;;;;;;3.95;78.89;93575.03;4975736;28;20204;-84
2021/11/28 06:46:24;;;;;;;2.63;2.07;;;;;;;3.98;79.16;93574.66;4976157;28;20200;-84
2021/11/28 06:48:50;;;;;;;2.20;1.73;;;;;;;4.00;79.20;93576.06;4976875;28;20204;-82
2021/11/28 06:51:17;;;;;;;2.90;2.07;;;;;;;4.03;79.43;93582.56;4976520;28;20718;-83
2021/11/28 06:53:45;;;;;;;2.20;1.90;;;;;;;3.97;79.55;93580.72;4976300;28;20642;-84
2021/11/28 06:56:11;;;;;;;2.10;1.90;;;;;;;3.98;79.46;93590.72;4976086;28;20224;-82
2021/11/28 06:58:38;;;;;;;1.97;1.83;;;;;;;3.96;79.75;93587.59;4976418;28;20235;-84
2021/11/28 07:01:05;;;;;;;2.10;1.80;;;;;;;3.98;80.01;93584.84;4976144;28;20781;-83
2021/11/28 07:03:31;;;;;;;2.00;1.90;;;;;;;4.00;79.85;93583.69;4976527;28;20290;-84
2021/11/28 07:05:58;;;;;;;2.23;1.90;;;;;;;4.00;80.30;93591.34;4975772;28;20196;-84
2021/11/28 07:08:24;;;;;;;4.23;2.03;;;;;;;3.98;80.56;93595.03;4975722;28;20267;-85
2021/11/28 07:10:53;;;;;;;2.90;2.10;;;;;;;3.94;80.96;93606.56;4966925;28;20216;-82
2021/11/28 07:13:20;;;;;;;3.47;2.10;;;;;;;3.95;81.24;93608.13;4974361;28;20567;-83
2021/11/28 07:15:47;;;;;;;2.97;1.80;;;;;;;4.49;100.00;93603.19;4973493;28;20259;-84
2021/11/28 07:18:13;;;;;;;2.73;1.80;;;;;;;4.57;83.28;93592.84;4976288;28;20227;-82
2021/11/28 07:20:39;;;;;;;2.63;2.10;;;;;;;4.50;80.94;93597.91;4977679;28;20201;-83
2021/11/28 07:23:06;;;;;;;2.47;2.27;;;;;;;4.43;80.27;93603.94;4976168;28;20298;-83
2021/11/28 07:25:33;;;;;;;3.03;2.00;;;;;;;4.27;80.84;93610.09;4976837;28;20405;-83
2021/11/28 07:28:02;;;;;;;2.93;2.00;;;;;;;4.22;80.93;93616.75;4976977;28;20208;-83
2021/11/28 07:30:29;;;;;;;2.43;2.10;;;;;;;4.10;80.80;93601.97;4974395;28;20207;-83
2021/11/28 07:32:56;;;;;;;2.73;2.20;;;;;;;4.08;81.09;93611.56;4976500;28;20726;-83
2021/11/28 07:35:23;;;;;;;2.30;1.60;;;;;;;4.04;81.07;93602.69;4976276;28;20250;-85
2021/11/28 07:37:50;;;;;;;2.67;2.20;;;;;;;3.95;80.71;93605.59;4977592;28;20204;-83
2021/11/28 07:40:17;;;;;;;2.20;2.00;;;;;;;3.96;81.30;93609.72;4985137;28;20200;-83
2021/11/28 07:42:43;;;;;;;2.30;2.00;;;;;;;4.00;81.23;93608.38;4979940;28;20602;-83
2021/11/28 07:45:12;;;;;;;2.03;1.83;;;;;;;3.98;80.52;93597.59;4975333;28;20678;-86
2021/11/28 07:47:39;;;;;;;2.10;1.80;;;;;;;4.00;80.52;93601.53;4975486;28;20204;-85
2021/11/28 07:50:07;;;;;;;2.53;1.77;;;;;;;4.02;80.77;93602.13;4974875;28;20204;-86
2021/11/28 07:52:34;;;;;;;2.87;1.77;;;;;;;3.97;80.61;93601.88;4975227;28;20228;-84
2021/11/28 07:55:00;;;;;;;4.10;1.80;;;;;;;4.01;80.25;93595.47;4974841;28;20599;-86
2021/11/28 07:57:28;;;;;;;1.50;1.40;;;;;;;4.05;80.10;93594.09;4974986;28;20255;-85
2021/11/28 07:59:54;;;;;;;3.40;1.60;;;;;;;4.08;79.90;93593.72;4975235;28;20197;-85
2021/11/28 08:02:22;;;;;;;3.67;1.60;;;;;;;3.92;80.24;93598.31;4975414;28;20278;-84
2021/11/28 08:04:49;;;;;;;1.77;1.50;;;;;;;3.91;80.44;93601.81;4975388;28;20197;-84
2021/11/28 08:07:18;;;;;;;2.27;1.50;;;;;;;4.40;99.98;93610.22;4973241;28;20259;-82
2021/11/28 08:09:44;;;;;;;3.13;1.73;;;;;;;4.64;91.21;93598.75;4973808;28;20200;-82
2021/11/28 08:12:11;;;;;;;4.33;2.00;;;;;;;4.74;81.25;93593.31;4965821;28;20231;-85
2021/11/28 08:14:40;;;;;;;1.77;1.67;;;;;;;4.71;79.91;93594.47;4974538;28;20683;-86
2021/11/28 08:17:07;;;;;;;3.33;1.90;;;;;;;4.67;79.99;93603.47;4974731;28;20188;-82
2021/11/28 08:19:35;;;;;;;2.43;1.70;;;;;;;4.50;78.48;93603.00;4973838;28;20216;-85
2021/11/28 08:22:04;;;;;;;3.77;2.00;;;;;;;4.43;78.91;93603.94;4974568;28;20231;-85
2021/11/28 08:24:31;;;;;;;1.57;1.47;;;;;;;4.40;78.38;93606.88;4973696;28;20204;-82
2021/11/28 08:26:59;;;;;;;2.10;1.90;;;;;;;4.40;79.05;93604.31;4975106;28;20203;-81
2021/11/28 08:29:29;;;;;;;2.67;2.10;;;;;;;4.33;79.63;93604.28;4974287;28;20211;-86
2021/11/28 08:31:56;;;;;;;3.47;1.70;;;;;;;4.19;79.06;93610.28;4973801;28;20575;-86
2021/11/28 08:34:22;;;;;;;3.47;2.00;;;;;;;4.08;80.34;93611.56;4974285;28;20200;-84
2021/11/28 08:36:50;;;;;;;2.73;1.83;;;;;;;4.12;80.21;93610.22;4975056;28;20227;-85
2021/11/28 08:39:19;;;;;;;1.80;1.70;;;;;;;4.11;80.46;93610.41;4974141;28;20200;-85
2021/11/28 08:41:48;;;;;;;3.10;2.10;;;;;;;4.07;80.81;93609.19;4974074;28;20250;-86
2021/11/28 08:44:15;;;;;;;3.03;2.10;;;;;;;4.04;81.28;93610.34;4975346;28;20255;-84
2021/11/28 08:46:41;;;;;;;2.97;2.40;;;;;;;3.92;82.53;93616.91;4975309;28;20256;-85
2021/11/28 08:49:08;;;;;;;3.40;2.40;;;;;;;3.92;84.63;93616.91;4973392;28;20196;-84
2021/11/28 08:51:36;;;;;;;3.00;2.40;;;;;;;3.95;83.58;93623.41;4972629;28;20200;-84
2021/11/28 08:54:04;;;;;;;4.60;2.80;;;;;;;4.02;84.00;93616.63;4973385;28;20224;-83
2021/11/28 08:56:36;;;;;;;3.13;2.50;;;;;;;4.16;83.07;93628.47;4974594;28;20227;-83
2021/11/28 08:59:03;;;;;;;4.30;2.73;;;;;;;4.22;82.22;93624.41;4974641;28;20267;-83
2021/11/28 09:01:29;;;;;;;3.10;2.67;;;;;;;4.20;82.38;93619.47;4973964;28;20197;-83
2021/11/28 09:03:56;;;;;;;2.57;2.30;;;;;;;4.13;81.69;93629.63;4975027;28;20200;-83
2021/11/28 09:06:22;;;;;;;3.00;2.57;;;;;;;4.18;82.04;93630.81;4975484;28;20239;-84
2021/11/28 09:08:53;;;;;;;4.23;2.50;;;;;;;4.24;82.02;93632.59;4978077;28;20200;-85
2021/11/28 09:11:30;;;;;;;3.50;2.23;;;;;;;4.26;82.04;93635.75;4959587;29;20228;-84
2021/11/28 09:13:59;;;;;;;3.20;2.50;;;;;;;4.29;82.27;93636.19;4965715;28;20193;-85
2021/11/28 09:16:26;;;;;;;3.57;2.77;;;;;;;4.27;83.32;93639.88;4976643;28;20259;-84
2021/11/28 09:18:56;;;;;;;3.50;2.83;;;;;;;4.32;84.57;93642.66;4976107;28;20207;-82
2021/11/28 09:21:22;;;;;;;3.17;2.67;;;;;;;4.42;83.79;93638.03;4976688;28;20228;-83
2021/11/28 09:26:34;;;;;;;3.80;2.60;;;;;;;4.62;82.69;93630.53;4977147;28;20303;-85
2021/11/28 09:29:04;;;;;;;2.40;2.20;;;;;;;4.71;79.94;93627.63;4976521;28;20224;-82
2021/11/28 09:31:31;;;;;;;3.20;2.23;;;;;;;4.76;77.68;93627.06;4976703;28;20671;-82
2021/11/28 09:33:59;;;;;;;2.57;2.03;;;;;;;4.77;77.80;93626.88;4977161;28;20201;-82
2021/11/28 09:36:27;;;;;;;8.20;4.20;;;;;;;4.67;78.61;93628.97;4976102;28;20220;-83
2021/11/28 09:38:58;;;;;;;2.33;2.13;;;;;;;4.77;78.52;93623.53;4976878;28;20290;-84
2021/11/28 09:41:25;;;;;;;2.57;1.97;;;;;;;4.82;77.47;93619.41;4976292;28;20203;-84
2021/11/28 09:43:58;;;;;;;2.27;1.83;;;;;;;4.79;77.67;93619.03;4974790;28;20228;-84
2021/11/28 09:46:26;;;;;;;3.30;2.37;;;;;;;4.80;77.50;93623.94;4976973;28;20207;-83
2021/11/28 09:48:57;;;;;;;3.37;2.00;;;;;;;4.72;76.44;93613.09;4976438;28;20231;-84
2021/11/28 09:51:27;;;;;;;1.70;1.60;;;;;;;4.71;77.04;93619.97;4975193;28;20256;-85
2021/11/28 09:53:55;;;;;;;2.67;1.80;;;;;;;4.63;77.14;93624.41;4975668;28;20216;-86
2021/11/28 09:56:21;;;;;;;2.73;1.83;;;;;;;4.61;77.72;93613.66;4975922;28;20307;-82
2021/11/28 09:58:48;;;;;;;1.90;1.80;;;;;;;4.64;77.86;93618.34;4976128;28;20246;-83
2021/11/28 10:01:16;;;;;;;2.80;1.90;;;;;;;4.64;78.23;93613.25;4976284;28;20204;-85
2021/11/28 10:03:43;;;;;;;2.00;1.90;;;;;;;4.64;77.87;93613.25;4977583;28;20232;-84
2021/11/28 10:06:10;;;;;;;3.10;2.00;;;;;;;4.55;78.11;93615.19;4975618;28;20204;-84
2021/11/28 10:08:38;;;;;;;2.73;1.97;;;;;;;4.54;78.51;93617.91;4976336;28;20205;-84
2021/11/28 10:11:32;;;;;;;2.17;1.93;;;;;;;4.58;79.46;93617.34;4975942;28;20201;-85
2021/11/28 10:13:58;;;;;;;2.50;2.00;;;;;;;4.53;79.56;93613.78;4975396;28;20199;-83
2021/11/28 10:16:26;;;;;;;2.73;2.17;;;;;;;4.46;79.50;93613.75;4975992;28;20235;-85
2021/11/28 10:18:53;;;;;;;4.83;1.90;;;;;;;4.53;79.87;93613.78;4977262;28;20258;-85
2021/11/28 10:21:19;;;;;;;2.73;2.47;;;;;;;4.53;79.35;93603.59;4976612;28;20196;-85
2021/11/28 10:24:06;;;;;;;4.63;3.60;;;;;;;4.53;79.09;93608.69;4976959;28;20224;-85
2021/11/28 10:26:33;;;;;;;2.20;2.00;;;;;;;4.49;79.02;93606.53;4978430;28;20227;-84
2021/11/28 10:29:08;;;;;;;3.93;2.10;;;;;;;4.45;79.82;93612.97;4976456;28;20239;-83
2021/11/28 10:31:47;;;;;;;3.87;2.10;;;;;;;4.47;80.00;93605.91;4986420;28;20227;-85
2021/11/28 10:34:16;;;;;;;2.70;2.10;;;;;;;4.42;80.04;93608.25;4981373;28;20204;-84
2021/11/28 10:36:42;;;;;;;1.97;1.73;;;;;;;4.37;79.33;93602.16;4975693;28;20227;-85
2021/11/28 10:39:14;;;;;;;2.70;2.00;;;;;;;4.29;80.03;93602.28;4975456;28;20291;-84
2021/11/28 10:41:48;;;;;;;1.73;1.63;;;;;;;4.24;80.23;93602.84;4975402;28;20212;-85
2021/11/28 10:44:15;;;;;;;2.40;1.90;;;;;;;4.26;80.14;93595.78;4974783;28;20199;-85
2021/11/28 10:46:42;;;;;;;2.13;1.90;;;;;;;4.35;80.28;93599.78;4975440;28;20204;-85
2021/11/28 10:49:11;;;;;;;2.67;1.97;;;;;;;4.36;80.11;93588.63;4974257;28;20254;-84
2021/11/28 10:51:40;;;;;;;2.33;1.80;;;;;;;4.29;79.81;93587.78;4975264;28;20196;-83
2021/11/28 10:54:25;;;;;;;2.07;1.70;;;;;;;4.33;80.45;93588.22;4975076;28;20200;-84
2021/11/28 10:57:14;;;;;;;2.20;1.90;;;;;;;4.22;80.14;93586.97;4963178;28;20239;-84
2021/11/28 10:59:42;;;;;;;2.57;2.00;;;;;;;4.22;80.76;93589.53;4975334;28;20220;-84
2021/11/28 11:02:22;;;;;;;2.20;2.00;;;;;;;4.17;81.71;93586.75;4974861;28;20231;-84
2021/11/28 11:04:52;;;;;;;2.53;1.60;;;;;;;4.22;81.66;93589.53;4979338;28;20196;-85
2021/11/28 11:07:21;;;;;;;2.47;1.90;;;;;;;4.24;82.15;93581.69;4974709;28;20251;-84
2021/11/28 11:09:49;;;;;;;2.93;1.80;;;;;;;4.22;82.36;93589.53;4975283;28;20204;-83
2021/11/28 11:12:27;;;;;;;2.27;2.07;;;;;;;4.08;83.55;93583.53;4974795;28;20228;-83
2021/11/28 11:14:56;;;;;;;2.20;2.00;;;;;;;4.06;83.88;93584.69;4964230;28;20331;-83
2021/11/28 11:17:23;;;;;;;5.97;4.83;;;;;;;4.01;84.33;93587.81;4971654;28;20216;-85
2021/11/28 11:19:51;;;;;;;4.93;4.30;;;;;;;3.96;85.11;93584.25;4975587;28;20204;-85
2021/11/28 11:22:22;;;;;;;2.50;2.30;;;;;;;3.94;85.46;93583.66;4974935;28;20231;-85
2021/11/28 11:24:53;;;;;;;4.97;2.30;;;;;;;3.92;84.97;93585.59;4975463;28;20608;-85
2021/11/28 11:27:25;;;;;;;2.47;2.13;;;;;;;3.94;85.01;93581.09;4974166;28;20251;-84
2021/11/28 11:29:54;;;;;;;4.70;2.20;;;;;;;3.99;84.90;93589.75;4973872;28;20203;-83
2021/11/28 11:32:23;;;;;;;2.27;2.07;;;;;;;4.07;84.69;93588.81;4973583;28;20231;-85
2021/11/28 11:34:56;;;;;;;2.50;2.30;;;;;;;4.09;84.66;93586.88;4974895;28;20207;-85
2021/11/28 11:37:26;;;;;;;4.03;2.43;;;;;;;4.12;84.34;93589.06;4973612;28;20220;-85
2021/11/28 11:39:54;;;;;;;3.07;2.50;;;;;;;4.09;84.90;93587.66;4974358;28;20196;-85
2021/11/28 11:42:27;;;;;;;2.60;2.20;;;;;;;4.15;84.43;93588.69;4973742;28;20231;-85
2021/11/28 11:44:54;;;;;;;2.80;2.60;;;;;;;4.17;83.79;93584.19;4974619;28;20201;-85
2021/11/28 11:47:22;;;;;;;3.17;2.23;;;;;;;4.18;84.15;93595.97;4973362;28;20200;-85